Time;durP1;ratioP1;P1;durP2;ratioP2;P2;SDS_P1;SDS_P2;PMS_P1;PMS_P2;Temp;Humidity;BMP_temperature;BMP_pressure;BME280_temperature;BME280_humidity;BME280_pressure;Samples;Min_cycle;Max_cycle;Signal;HPM_P1;HPM_P2
2023/01/10 16:19:23;;;;;;;16.30;4.82;;;6.30;99.90;;;;;;5179299;27;20382;-66
2023/01/10 16:21:56;;;;;;;10.75;4.70;;;6.30;99.90;;;;;;5152276;27;20095;-66
2023/01/10 16:24:24;;;;;;;17.17;5.25;;;6.30;99.90;;;;;;5150855;27;20019;-65
2023/01/10 16:26:50;;;;;;;13.60;5.93;;;6.40;99.90;;;;;;5170029;27;20019;-67
2023/01/10 16:29:16;;;;;;;23.30;5.03;;;6.50;99.90;;;;;;5159306;27;20037;-69
2023/01/10 16:31:42;;;;;;;18.88;5.78;;;6.50;99.90;;;;;;5156215;27;20015;-67
2023/01/10 16:34:08;;;;;;;13.48;7.10;;;6.60;99.90;;;;;;5169850;27;20033;-72
2023/01/10 16:36:34;;;;;;;17.58;5.78;;;6.60;99.90;;;;;;5167148;27;20066;-70
2023/01/10 16:39:31;;;;;;;10.25;5.00;;;6.70;99.90;;;;;;5158281;27;20065;-68
2023/01/10 16:44:41;;;;;;;12.18;5.53;;;6.70;99.90;;;;;;5170888;27;20087;-67
2023/01/10 16:47:07;;;;;;;14.70;5.13;;;6.70;99.90;;;;;;5170937;27;20026;-70
2023/01/10 16:49:32;;;;;;;15.38;4.10;;;6.70;99.90;;;;;;5169638;27;20019;-67
2023/01/10 16:51:58;;;;;;;17.17;3.75;;;6.70;99.90;;;;;;5169329;27;20098;-66
2023/01/10 16:54:24;;;;;;;14.93;4.75;;;6.70;99.90;;;;;;5170358;27;20046;-69
2023/01/10 16:56:50;;;;;;;15.20;4.85;;;6.70;99.90;;;;;;5170414;27;20018;-67
2023/01/10 16:59:19;;;;;;;12.07;4.75;;;6.60;99.90;;;;;;5170039;27;20068;-72
2023/01/10 17:01:50;;;;;;;19.10;5.43;;;6.70;99.90;;;;;;5170392;27;20019;-66
2023/01/10 17:04:36;;;;;;;;;;;6.60;99.90;;;;;;5152582;27;20083;-67
2023/01/10 17:07:02;;;;;;;12.63;4.25;;;6.60;99.90;;;;;;5169323;27;20274;-69
2023/01/10 17:09:29;;;;;;;11.75;6.45;;;6.60;99.90;;;;;;5151563;27;20455;-66
2023/01/10 17:12:05;;;;;;;13.82;5.15;;;6.60;99.90;;;;;;5169958;27;20427;-66
2023/01/10 17:14:34;;;;;;;14.82;4.43;;;6.60;99.90;;;;;;5136146;27;20111;-67
2023/01/10 17:17:00;;;;;;;12.63;4.47;;;6.60;99.90;;;;;;5150707;27;20025;-66
2023/01/10 17:19:25;;;;;;;16.23;4.57;;;6.50;99.90;;;;;;5169866;27;20035;-68
2023/01/10 17:21:51;;;;;;;13.10;4.72;;;6.60;99.90;;;;;;5150614;27;20102;-67
2023/01/10 17:24:17;;;;;;;16.58;5.43;;;6.50;99.90;;;;;;5150751;27;20014;-67
2023/01/10 17:26:43;;;;;;;12.70;6.03;;;6.50;99.90;;;;;;5169115;27;20387;-67
2023/01/10 17:29:08;;;;;;;10.98;5.05;;;6.50;99.90;;;;;;5146581;27;20113;-66
2023/01/10 17:31:34;;;;;;;11.35;5.93;;;6.50;99.90;;;;;;5155632;27;20427;-67
2023/01/10 17:33:59;;;;;;;12.00;5.05;;;6.50;99.90;;;;;;5136856;27;20031;-68
2023/01/10 17:36:28;;;;;;;12.57;4.80;;;6.50;99.90;;;;;;5155510;27;20536;-67
2023/01/10 17:38:55;;;;;;;10.00;4.30;;;6.50;99.90;;;;;;5155277;27;20105;-69
2023/01/10 17:41:21;;;;;;;12.98;5.28;;;6.50;99.90;;;;;;5154389;27;20037;-67
2023/01/10 17:43:46;;;;;;;11.88;5.22;;;6.50;99.90;;;;;;5155327;27;20339;-68
2023/01/10 17:46:14;;;;;;;12.20;4.78;;;6.50;99.90;;;;;;5155841;27;20030;-67
2023/01/10 17:48:40;;;;;;;10.88;5.05;;;6.50;99.90;;;;;;5137228;27;20531;-67
2023/01/10 17:51:06;;;;;;;14.98;6.43;;;6.50;99.90;;;;;;5155108;27;20069;-66
2023/01/10 17:53:32;;;;;;;11.60;6.75;;;6.50;99.90;;;;;;5155449;27;20030;-66
2023/01/10 17:55:59;;;;;;;11.15;4.85;;;6.40;99.90;;;;;;5154771;27;20030;-66
2023/01/10 17:58:26;;;;;;;8.05;4.47;;;6.50;99.90;;;;;;5136557;27;20505;-66
2023/01/10 18:00:52;;;;;;;7.70;4.63;;;6.50;99.90;;;;;;5136554;27;20022;-66
2023/01/10 18:03:18;;;;;;;9.07;5.50;;;6.50;99.90;;;;;;5154740;27;20534;-66
2023/01/10 18:05:54;;;;;;;10.52;5.57;;;6.50;99.90;;;;;;5151531;27;20050;-68
2023/01/10 18:08:20;;;;;;;11.35;5.35;;;6.50;99.90;;;;;;5148279;27;20482;-66
2023/01/10 18:10:46;;;;;;;8.63;3.92;;;6.50;99.90;;;;;;5153975;27;20019;-65
2023/01/10 18:13:13;;;;;;;8.13;5.07;;;6.50;99.90;;;;;;5144745;27;20106;-65
2023/01/10 18:15:49;;;;;;;11.18;6.85;;;6.50;99.90;;;;;;5154066;27;20054;-66
2023/01/10 18:18:15;;;;;;;12.70;7.20;;;6.50;99.90;;;;;;5149571;27;20043;-64
2023/01/10 18:20:44;;;;;;;10.82;7.10;;;6.60;99.90;;;;;;5136601;27;20027;-68
2023/01/10 18:23:20;;;;;;;12.05;7.55;;;6.50;99.90;;;;;;5117266;27;20022;-68
2023/01/10 18:26:03;;;;;;;12.10;6.60;;;6.60;99.90;;;;;;5148018;27;20064;-64
2023/01/10 18:28:34;;;;;;;8.80;5.28;;;6.60;99.90;;;;;;5134960;27;20048;-73
2023/01/10 18:31:03;;;;;;;12.85;6.28;;;6.60;99.90;;;;;;5152851;27;20029;-66
2023/01/10 18:33:29;;;;;;;11.27;7.28;;;6.60;99.90;;;;;;5130329;27;20095;-68
2023/01/10 18:35:56;;;;;;;13.88;7.25;;;6.60;99.90;;;;;;5135433;27;20507;-66
2023/01/10 18:38:23;;;;;;;12.63;6.28;;;6.60;99.90;;;;;;5138377;27;20103;-64
2023/01/10 18:40:52;;;;;;;10.30;6.40;;;6.60;99.90;;;;;;5137201;27;20105;-65
2023/01/10 18:43:17;;;;;;;12.40;6.15;;;6.60;99.90;;;;;;5155431;27;20019;-71
2023/01/10 18:45:45;;;;;;;7.38;4.90;;;6.70;99.90;;;;;;5146158;27;20528;-64
2023/01/10 18:48:14;;;;;;;8.23;4.90;;;6.70;99.90;;;;;;5125346;27;20034;-65
2023/01/10 18:50:40;;;;;;;12.18;6.22;;;6.70;99.90;;;;;;5154444;27;20023;-66
2023/01/10 18:53:06;;;;;;;12.25;8.32;;;6.80;99.90;;;;;;5153674;27;20051;-68
2023/01/10 18:55:32;;;;;;;9.27;5.43;;;6.70;99.90;;;;;;5135775;27;20034;-65
2023/01/10 18:57:58;;;;;;;11.35;5.95;;;6.80;99.90;;;;;;5153560;27;20121;-65
2023/01/10 19:00:23;;;;;;;10.90;6.80;;;6.80;99.90;;;;;;5154208;27;20031;-66
2023/01/10 19:02:49;;;;;;;10.40;6.80;;;6.80;99.90;;;;;;5152538;27;20026;-69
2023/01/10 19:05:15;;;;;;;12.13;7.38;;;6.80;99.90;;;;;;5152976;27;20110;-68
2023/01/10 19:07:40;;;;;;;13.95;7.95;;;6.90;99.90;;;;;;5154121;27;20375;-65
2023/01/10 19:10:07;;;;;;;12.35;6.82;;;6.90;99.90;;;;;;5134675;27;20455;-67
2023/01/10 19:12:33;;;;;;;15.77;9.10;;;6.90;99.90;;;;;;5152162;27;20470;-71
2023/01/10 19:14:59;;;;;;;10.18;6.65;;;6.90;99.90;;;;;;5137879;27;20021;-66
2023/01/10 19:17:25;;;;;;;12.63;7.13;;;7.00;99.90;;;;;;5153360;27;20019;-65
2023/01/10 19:19:52;;;;;;;15.25;7.85;;;7.00;99.90;;;;;;5153025;27;20056;-66
2023/01/10 19:22:21;;;;;;;12.10;7.78;;;7.00;99.90;;;;;;5152695;27;20470;-67
2023/01/10 19:24:47;;;;;;;11.70;6.55;;;7.00;99.90;;;;;;5153713;27;20019;-67
2023/01/10 19:27:12;;;;;;;11.55;6.38;;;7.00;99.90;;;;;;5148784;27;20076;-67
2023/01/10 19:29:38;;;;;;;10.35;6.53;;;7.00;99.90;;;;;;5132631;27;20353;-67
2023/01/10 19:32:04;;;;;;;11.60;7.40;;;7.00;99.90;;;;;;5132673;27;20023;-66
2023/01/10 19:34:29;;;;;;;9.82;6.13;;;7.10;99.90;;;;;;5131550;27;20458;-70
2023/01/10 19:36:55;;;;;;;14.75;7.95;;;7.10;99.90;;;;;;5145020;27;20037;-68
2023/01/10 19:39:20;;;;;;;9.77;6.30;;;7.10;99.90;;;;;;5152679;27;20033;-68
2023/01/10 19:41:46;;;;;;;8.50;5.90;;;7.10;99.90;;;;;;5152342;27;20027;-68
2023/01/10 19:44:14;;;;;;;10.02;6.78;;;7.10;99.90;;;;;;5152948;27;20023;-68
2023/01/10 19:46:40;;;;;;;8.80;3.95;;;7.10;99.90;;;;;;5152746;27;20023;-70
2023/01/10 19:49:06;;;;;;;7.25;5.03;;;7.10;99.90;;;;;;5151607;27;20015;-68
2023/01/10 19:51:34;;;;;;;6.40;4.43;;;7.10;99.90;;;;;;5152011;27;20023;-67
2023/01/10 19:54:00;;;;;;;8.32;5.15;;;7.10;99.90;;;;;;5152233;27;20046;-68
2023/01/10 19:56:26;;;;;;;8.93;4.80;;;7.20;99.90;;;;;;5134624;27;20117;-67
2023/01/10 19:58:53;;;;;;;8.65;4.85;;;7.20;99.90;;;;;;5131485;27;20110;-68
2023/01/10 20:01:22;;;;;;;5.95;3.50;;;7.20;99.90;;;;;;5130633;27;20023;-68
2023/01/10 20:03:48;;;;;;;5.55;3.42;;;7.30;99.90;;;;;;5144833;27;20415;-66
2023/01/10 20:06:19;;;;;;;3.83;2.88;;;7.30;99.90;;;;;;5134608;27;20083;-67
2023/01/10 20:08:46;;;;;;;6.65;3.63;;;7.30;99.90;;;;;;5153135;27;20019;-66
